Alpine, Pennsylvania
Current Conditions -  °F | °C
As of 9:56 AM on Sunday 21 Dec 2014 (Local Time) from KCXY Reporting Station
Overcast Overcast  
Wind Chill: 31°   Ceiling: 2900
Heat Index: 31°   Visibility: 7mi
Dew Point: 23°   Wind: 0mph
Humidity: 72%   Direction: NA
Pressure: 30.36"   Gusts: NA
Location:  40.1328°N, 76.8833°W
Report Text: KCXY 211456Z 00000KT 7SM OVC029 M01/M05 A3036 RMK AO2 SLP285 T10061050 51012
Loading
Personal Weather Stations






























Interactive Weather Map New forecast layout! Learn more

10-Day Weather Forecast

Advertisements
Track Severe Weather on mobile